Report METAR

 

LIBV - Gioia Del Colle, Italy
Distanza dalla stazione: SSE 15km
Dati ricevuti: 18/11/2019 05:55
Sereno
Sereno
 Vento da N
Vento: N 4 km/h
Temperatura: 9°C
P.to Rugiada: 8°C
Umidità: 94%
Barometro: 1012 hPa
Riassunto: Sereno
Visibilità: superiore a 10 km
2019/11/18 04:55 LIBV 180455Z 36002KT CAVOK 09/08 Q1012 RMK SKC VIS MIN 9999 WIND THR32 09005KT WIND THR14 VRB01KT BLU
LIBD - Bari/Palese Macc, Italy
Distanza dalla stazione: NNO 26km
Dati ricevuti: 18/11/2019 06:20
Sereno
Sereno
 Vento da SO
Vento: SO 9 km/h
Temperatura: 9°C
Temperatura Vento: 7°C
P.to Rugiada: 7°C
Umidità: 87%
Barometro: 1014 hPa
Riassunto: Sereno
Visibilità: superiore a 10 km
2019/11/18 05:20 LIBD 180520Z 22005KT CAVOK 09/07 Q1014
 
LIBH - Marina Di Ginosa, Italy
Distanza dalla stazione: S 53km
Dati ricevuti: 17/11/2019 18:55
DATI Obsoleti
Poche nubi
Poche nubi
 Vento da ENE
Vento: ENE 9 km/h
Temperatura: 13°C
P.to Rugiada: 12°C
Umidità: 94%
Barometro: 1009 hPa
Nuvole: Poche nubi
Visibilità: 6 km
Dettagli nuvole: Poche nubi 1219 m
2019/11/17 17:55 LIBH 171755Z 06005KT 6000 FEW040CB 13/12 Q1009 RETS RMK OVC OVC070 QUK / QUL / VIS MAR /M VIS MIN 6000
LIBG - Grottaglie(Civ/A, Italy
Distanza dalla stazione: SE 61km
Dati ricevuti: 17/11/2019 19:50
DATI Obsoleti
Poche nubi
Poche nubi
 Vento da E
Vento: E 6 km/h
Temperatura: 13°C
P.to Rugiada: 12°C
Umidità: 94%
Barometro: 1010 hPa
Nuvole: Poche nubi
Visibilità: 10 km
Dettagli nuvole: Poche nubi 1372 m
2019/11/17 18:50 LIBG 171850Z 09003KT 070V150 9999 FEW045 13/12 Q1010 RERA
 
LIBR - Brindisi/Casale, Italy
Distanza dalla stazione: ESE 96km
Dati ricevuti: 18/11/2019 06:20
Sereno
Sereno
 Vento da SO
Vento: SO 15 km/h
Temperatura: 10°C
Temperatura Vento: 8°C
P.to Rugiada: 9°C
Umidità: 94%
Barometro: 1015 hPa
Riassunto: Sereno
Visibilità: superiore a 10 km
2019/11/18 05:20 LIBR 180520Z 23008KT CAVOK 10/09 Q1015
LIBA - Amendola (it-Afb, Italy
Distanza dalla stazione: NO 118km
Dati ricevuti: 18/11/2019 05:55
Sereno
Sereno
 Vento da SSO
Vento: SSO 4 km/h
Temperatura: 10°C
P.to Rugiada: 6°C
Umidità: 76%
Barometro: 1013 hPa
Riassunto: Sereno
Visibilità: superiore a 10 km
2019/11/18 04:55 LIBA 180455Z 21002KT CAVOK 10/06 Q1013
 
LIBF - Foggia/Gino Lisa, Italy
Distanza dalla stazione: ONO 126km
Dati ricevuti: 17/11/2019 15:50
DATI Obsoleti
Pioggia, Nuvoloso
Pioggia, Nuvoloso
 Vento da E
Vento: E 15 km/h
Temperatura: 12°C
P.to Rugiada: 11°C
Umidità: 94%
Barometro: 1007 hPa
Riassunto: Pioggia
Nuvole: Molto nuvoloso
Visibilità: 10 km
Dettagli nuvole: Molto nuvoloso 1829 m
2019/11/17 14:50 LIBF 171450Z 10008KT 9999 RA BKN060 12/11 Q1007
LIBN - Lecce (it-Afb), Italy
Distanza dalla stazione: SE 132km
Dati ricevuti: 18/11/2019 05:55
Sereno
Sereno
 Vento da Variabile
Vento: Variabile 6 km/h
Temperatura: 9°C
P.to Rugiada: 8°C
Umidità: 94%
Barometro: 1015 hPa
Riassunto: Sereno
Visibilità: superiore a 10 km
2019/11/18 04:55 LIBN 180455Z VRB03KT CAVOK 09/08 Q1015